sensor_id;sensor_type;location;lat;lon;timestamp;pressure;altitude;pressure_sealevel;temperature;humidity
64967;BME280;51710;38.732;-121.358;2023-03-14T00:02:20;101053.69;;;20.30;63.36
64967;BME280;51710;38.732;-121.358;2023-03-14T00:04:46;101053.28;;;20.26;63.69
64967;BME280;51710;38.732;-121.358;2023-03-14T00:07:15;101046.00;;;20.27;63.27
64967;BME280;51710;38.732;-121.358;2023-03-14T00:09:42;101043.31;;;20.27;63.73
64967;BME280;51710;38.732;-121.358;2023-03-14T00:12:09;101052.28;;;20.21;64.44
64967;BME280;51710;38.732;-121.358;2023-03-14T00:14:35;101055.78;;;20.14;63.97
64967;BME280;51710;38.732;-121.358;2023-03-14T00:17:01;101055.38;;;20.04;64.96
64967;BME280;51710;38.732;-121.358;2023-03-14T00:19:27;101057.91;;;19.99;65.25
64967;BME280;51710;38.732;-121.358;2023-03-14T00:21:54;101063.28;;;19.93;65.19
64967;BME280;51710;38.732;-121.358;2023-03-14T00:24:20;101056.25;;;19.85;65.73
64967;BME280;51710;38.732;-121.358;2023-03-14T00:26:46;101063.72;;;19.83;66.01
64967;BME280;51710;38.732;-121.358;2023-03-14T00:29:13;101053.75;;;19.77;66.53
64967;BME280;51710;38.732;-121.358;2023-03-14T00:31:39;101053.53;;;19.72;66.52
64967;BME280;51710;38.732;-121.358;2023-03-14T00:34:05;101039.81;;;19.67;66.72
64967;BME280;51710;38.732;-121.358;2023-03-14T00:36:31;101048.56;;;19.63;67.07
64967;BME280;51710;38.732;-121.358;2023-03-14T00:38:58;101057.91;;;19.60;67.70
64967;BME280;51710;38.732;-121.358;2023-03-14T00:41:24;101051.25;;;19.56;67.28
64967;BME280;51710;38.732;-121.358;2023-03-14T00:43:51;101047.31;;;19.52;67.96
64967;BME280;51710;38.732;-121.358;2023-03-14T00:46:17;101046.69;;;19.50;66.86
64967;BME280;51710;38.732;-121.358;2023-03-14T00:48:47;101047.91;;;19.48;66.99
64967;BME280;51710;38.732;-121.358;2023-03-14T00:51:13;101043.16;;;19.43;66.54
64967;BME280;51710;38.732;-121.358;2023-03-14T00:53:41;101053.13;;;19.36;65.58
64967;BME280;51710;38.732;-121.358;2023-03-14T00:56:11;101044.13;;;19.29;65.36
64967;BME280;51710;38.732;-121.358;2023-03-14T00:58:38;101042.88;;;19.25;66.02
64967;BME280;51710;38.732;-121.358;2023-03-14T01:01:16;101048.69;;;19.22;66.67
64967;BME280;51710;38.732;-121.358;2023-03-14T01:03:44;101046.63;;;19.18;67.25
64967;BME280;51710;38.732;-121.358;2023-03-14T01:06:18;101041.19;;;19.11;67.85
64967;BME280;51710;38.732;-121.358;2023-03-14T01:08:45;101033.28;;;19.03;68.63
64967;BME280;51710;38.732;-121.358;2023-03-14T01:11:18;101034.09;;;18.97;68.94
64967;BME280;51710;38.732;-121.358;2023-03-14T01:13:44;101030.53;;;18.90;69.31
64967;BME280;51710;38.732;-121.358;2023-03-14T01:16:12;101027.63;;;18.85;70.03
64967;BME280;51710;38.732;-121.358;2023-03-14T01:18:40;101029.09;;;18.81;70.05
64967;BME280;51710;38.732;-121.358;2023-03-14T01:21:18;101028.25;;;18.74;70.43
64967;BME280;51710;38.732;-121.358;2023-03-14T01:23:45;101024.69;;;18.67;70.34
64967;BME280;51710;38.732;-121.358;2023-03-14T01:26:14;101020.06;;;18.61;70.53
64967;BME280;51710;38.732;-121.358;2023-03-14T01:28:40;101022.56;;;18.56;70.74
64967;BME280;51710;38.732;-121.358;2023-03-14T01:31:08;101027.72;;;18.51;70.73
64967;BME280;51710;38.732;-121.358;2023-03-14T01:33:36;101031.22;;;18.45;70.91
64967;BME280;51710;38.732;-121.358;2023-03-14T01:36:03;101043.44;;;18.41;71.00
64967;BME280;51710;38.732;-121.358;2023-03-14T01:38:30;101043.81;;;18.38;71.02
64967;BME280;51710;38.732;-121.358;2023-03-14T01:40:57;101050.00;;;18.32;71.28
64967;BME280;51710;38.732;-121.358;2023-03-14T01:43:24;101062.22;;;18.28;71.26
64967;BME280;51710;38.732;-121.358;2023-03-14T01:48:42;101067.78;;;18.20;71.79
64967;BME280;51710;38.732;-121.358;2023-03-14T01:54:27;101060.66;;;18.12;72.12
64967;BME280;51710;38.732;-121.358;2023-03-14T01:59:35;101068.72;;;18.06;72.37
64967;BME280;51710;38.732;-121.358;2023-03-14T02:02:05;101070.13;;;18.02;72.47
64967;BME280;51710;38.732;-121.358;2023-03-14T02:04:35;101061.81;;;17.96;72.11
64967;BME280;51710;38.732;-121.358;2023-03-14T02:07:22;101052.84;;;17.89;71.87
64967;BME280;51710;38.732;-121.358;2023-03-14T02:09:49;101062.75;;;17.82;72.03
64967;BME280;51710;38.732;-121.358;2023-03-14T02:12:16;101068.72;;;17.78;72.00
64967;BME280;51710;38.732;-121.358;2023-03-14T02:14:44;101067.66;;;17.72;72.46
64967;BME280;51710;38.732;-121.358;2023-03-14T02:17:16;101073.78;;;17.66;72.30
64967;BME280;51710;38.732;-121.358;2023-03-14T02:19:50;101083.69;;;17.59;72.88
64967;BME280;51710;38.732;-121.358;2023-03-14T02:22:19;101081.13;;;17.51;73.26
64967;BME280;51710;38.732;-121.358;2023-03-14T02:25:21;101073.44;;;17.48;73.38
64967;BME280;51710;38.732;-121.358;2023-03-14T02:27:51;101087.91;;;17.47;73.72
64967;BME280;51710;38.732;-121.358;2023-03-14T02:30:22;101089.59;;;17.48;74.01
64967;BME280;51710;38.732;-121.358;2023-03-14T02:33:04;101092.31;;;17.48;73.72
64967;BME280;51710;38.732;-121.358;2023-03-14T02:35:42;101092.50;;;17.47;74.13
64967;BME280;51710;38.732;-121.358;2023-03-14T02:40:57;101095.06;;;17.40;73.35
64967;BME280;51710;38.732;-121.358;2023-03-14T02:43:23;101098.16;;;17.37;73.51
64967;BME280;51710;38.732;-121.358;2023-03-14T02:45:50;101096.66;;;17.35;74.10
64967;BME280;51710;38.732;-121.358;2023-03-14T02:48:34;101097.91;;;17.32;73.65
64967;BME280;51710;38.732;-121.358;2023-03-14T02:51:02;101090.03;;;17.31;73.90
64967;BME280;51710;38.732;-121.358;2023-03-14T02:53:31;101088.53;;;17.28;74.19
64967;BME280;51710;38.732;-121.358;2023-03-14T02:55:58;101092.25;;;17.27;74.46
64967;BME280;51710;38.732;-121.358;2023-03-14T02:58:24;101088.47;;;17.22;74.78
64967;BME280;51710;38.732;-121.358;2023-03-14T03:00:51;101092.34;;;17.19;75.19
64967;BME280;51710;38.732;-121.358;2023-03-14T03:03:17;101094.78;;;17.14;75.40
64967;BME280;51710;38.732;-121.358;2023-03-14T03:05:47;101084.22;;;17.13;75.63
64967;BME280;51710;38.732;-121.358;2023-03-14T03:08:13;101092.09;;;17.14;76.07
64967;BME280;51710;38.732;-121.358;2023-03-14T03:10:40;101091.47;;;17.12;76.19
64967;BME280;51710;38.732;-121.358;2023-03-14T03:13:06;101082.13;;;17.08;76.23
64967;BME280;51710;38.732;-121.358;2023-03-14T03:15:33;101082.47;;;17.05;76.03
64967;BME280;51710;38.732;-121.358;2023-03-14T03:17:59;101079.91;;;16.97;76.48
64967;BME280;51710;38.732;-121.358;2023-03-14T03:20:26;101083.00;;;16.94;76.34
64967;BME280;51710;38.732;-121.358;2023-03-14T03:22:52;101077.34;;;16.89;76.72
64967;BME280;51710;38.732;-121.358;2023-03-14T03:25:18;101081.63;;;16.83;76.91
64967;BME280;51710;38.732;-121.358;2023-03-14T03:27:45;101086.53;;;16.80;77.24
64967;BME280;51710;38.732;-121.358;2023-03-14T03:30:11;101078.47;;;16.80;77.37
64967;BME280;51710;38.732;-121.358;2023-03-14T03:32:38;101089.63;;;16.77;77.02
64967;BME280;51710;38.732;-121.358;2023-03-14T03:35:04;101093.31;;;16.76;77.38
64967;BME280;51710;38.732;-121.358;2023-03-14T03:37:31;101088.97;;;16.75;77.53
64967;BME280;51710;38.732;-121.358;2023-03-14T03:39:58;101089.31;;;16.72;77.67
64967;BME280;51710;38.732;-121.358;2023-03-14T03:42:26;101091.75;;;16.67;77.68
64967;BME280;51710;38.732;-121.358;2023-03-14T03:44:53;101089.06;;;16.67;77.65
64967;BME280;51710;38.732;-121.358;2023-03-14T03:47:19;101090.75;;;16.68;77.72
64967;BME280;51710;38.732;-121.358;2023-03-14T03:49:45;101084.31;;;16.69;77.88
64967;BME280;51710;38.732;-121.358;2023-03-14T03:52:12;101097.78;;;16.69;78.04
64967;BME280;51710;38.732;-121.358;2023-03-14T03:54:38;101091.56;;;16.68;78.06
64967;BME280;51710;38.732;-121.358;2023-03-14T03:57:04;101089.06;;;16.67;78.12
64967;BME280;51710;38.732;-121.358;2023-03-14T03:59:30;101094.81;;;16.64;78.09
64967;BME280;51710;38.732;-121.358;2023-03-14T04:01:56;101089.81;;;16.61;78.32
64967;BME280;51710;38.732;-121.358;2023-03-14T04:04:23;101086.66;;;16.57;78.48
64967;BME280;51710;38.732;-121.358;2023-03-14T04:06:49;101076.28;;;16.54;78.40
64967;BME280;51710;38.732;-121.358;2023-03-14T04:09:15;101084.72;;;16.51;78.62
64967;BME280;51710;38.732;-121.358;2023-03-14T04:11:44;101077.69;;;16.50;78.76
64967;BME280;51710;38.732;-121.358;2023-03-14T04:14:11;101082.41;;;16.48;78.86
64967;BME280;51710;38.732;-121.358;2023-03-14T04:16:37;101074.34;;;16.48;78.88
64967;BME280;51710;38.732;-121.358;2023-03-14T04:19:04;101086.94;;;16.48;78.91
64967;BME280;51710;38.732;-121.358;2023-03-14T04:21:30;101088.44;;;16.50;79.27
64967;BME280;51710;38.732;-121.358;2023-03-14T04:23:56;101084.53;;;16.53;78.98
64967;BME280;51710;38.732;-121.358;2023-03-14T04:26:22;101090.09;;;16.51;78.97
64967;BME280;51710;38.732;-121.358;2023-03-14T04:28:49;101087.78;;;16.48;79.05
64967;BME280;51710;38.732;-121.358;2023-03-14T04:31:18;101091.50;;;16.47;78.88
64967;BME280;51710;38.732;-121.358;2023-03-14T04:33:45;101093.34;;;16.47;79.06
64967;BME280;51710;38.732;-121.358;2023-03-14T04:36:14;101095.34;;;16.45;79.13
64967;BME280;51710;38.732;-121.358;2023-03-14T04:38:41;101092.00;;;16.43;79.29
64967;BME280;51710;38.732;-121.358;2023-03-14T04:41:07;101083.94;;;16.43;79.33
64967;BME280;51710;38.732;-121.358;2023-03-14T04:43:33;101088.31;;;16.44;79.41
64967;BME280;51710;38.732;-121.358;2023-03-14T04:45:59;101085.28;;;16.47;79.38
64967;BME280;51710;38.732;-121.358;2023-03-14T04:48:26;101088.81;;;16.47;79.54
64967;BME280;51710;38.732;-121.358;2023-03-14T04:50:52;101091.63;;;16.46;79.34
64967;BME280;51710;38.732;-121.358;2023-03-14T04:53:19;101095.75;;;16.42;79.50
64967;BME280;51710;38.732;-121.358;2023-03-14T04:55:54;101090.72;;;16.39;79.77
64967;BME280;51710;38.732;-121.358;2023-03-14T04:58:21;101103.53;;;16.37;79.39
64967;BME280;51710;38.732;-121.358;2023-03-14T05:00:47;101101.00;;;16.35;79.73
64967;BME280;51710;38.732;-121.358;2023-03-14T05:03:15;101111.94;;;16.34;79.65
64967;BME280;51710;38.732;-121.358;2023-03-14T05:05:41;101107.59;;;16.33;79.95
64967;BME280;51710;38.732;-121.358;2023-03-14T05:08:08;101115.66;;;16.33;79.91
64967;BME280;51710;38.732;-121.358;2023-03-14T05:10:35;101116.69;;;16.32;79.84
64967;BME280;51710;38.732;-121.358;2023-03-14T05:13:01;101109.81;;;16.29;79.87
64967;BME280;51710;38.732;-121.358;2023-03-14T05:15:28;101114.53;;;16.27;80.09
64967;BME280;51710;38.732;-121.358;2023-03-14T05:17:54;101115.38;;;16.28;80.08
64967;BME280;51710;38.732;-121.358;2023-03-14T05:20:21;101120.75;;;16.28;80.41
64967;BME280;51710;38.732;-121.358;2023-03-14T05:22:47;101115.38;;;16.28;80.06
64967;BME280;51710;38.732;-121.358;2023-03-14T05:25:13;101117.41;;;16.26;80.49
64967;BME280;51710;38.732;-121.358;2023-03-14T05:27:40;101112.03;;;16.26;80.58
64967;BME280;51710;38.732;-121.358;2023-03-14T05:30:07;101112.59;;;16.21;80.56
64967;BME280;51710;38.732;-121.358;2023-03-14T05:32:33;101105.53;;;16.20;80.87
64967;BME280;51710;38.732;-121.358;2023-03-14T05:34:59;101104.69;;;16.20;80.99
64967;BME280;51710;38.732;-121.358;2023-03-14T05:37:26;101105.72;;;16.19;81.28
64967;BME280;51710;38.732;-121.358;2023-03-14T05:39:52;101108.41;;;16.19;81.09
64967;BME280;51710;38.732;-121.358;2023-03-14T05:42:19;101094.97;;;16.19;81.24
64967;BME280;51710;38.732;-121.358;2023-03-14T05:44:45;101094.97;;;16.19;81.40
64967;BME280;51710;38.732;-121.358;2023-03-14T05:47:14;101103.03;;;16.19;81.44
64967;BME280;51710;38.732;-121.358;2023-03-14T05:49:41;101106.75;;;16.18;81.38
64967;BME280;51710;38.732;-121.358;2023-03-14T05:52:07;101095.53;;;16.14;81.74
64967;BME280;51710;38.732;-121.358;2023-03-14T05:54:33;101087.34;;;16.08;82.38
64967;BME280;51710;38.732;-121.358;2023-03-14T05:57:00;101091.47;;;16.04;82.61
64967;BME280;51710;38.732;-121.358;2023-03-14T05:59:26;101087.72;;;16.05;82.51
64967;BME280;51710;38.732;-121.358;2023-03-14T06:01:52;101073.66;;;16.03;82.71
64967;BME280;51710;38.732;-121.358;2023-03-14T06:04:18;101074.03;;;16.00;82.97
64967;BME280;51710;38.732;-121.358;2023-03-14T06:06:45;101078.75;;;15.98;83.35
64967;BME280;51710;38.732;-121.358;2023-03-14T06:09:11;101071.44;;;15.92;83.70
64967;BME280;51710;38.732;-121.358;2023-03-14T06:11:37;101060.75;;;15.84;84.44
64967;BME280;51710;38.732;-121.358;2023-03-14T06:14:04;101064.53;;;15.74;84.93
64967;BME280;51710;38.732;-121.358;2023-03-14T06:16:30;101079.34;;;15.70;85.01
64967;BME280;51710;38.732;-121.358;2023-03-14T06:18:57;101061.75;;;15.68;85.33
64967;BME280;51710;38.732;-121.358;2023-03-14T06:21:23;101056.94;;;15.63;86.09
64967;BME280;51710;38.732;-121.358;2023-03-14T06:23:51;101064.03;;;15.56;86.42
64967;BME280;51710;38.732;-121.358;2023-03-14T06:26:17;101062.72;;;15.52;86.56
64967;BME280;51710;38.732;-121.358;2023-03-14T06:28:43;101065.41;;;15.52;86.77
64967;BME280;51710;38.732;-121.358;2023-03-14T06:31:09;101053.00;;;15.51;87.08
64967;BME280;51710;38.732;-121.358;2023-03-14T06:33:36;101053.28;;;15.56;87.08
64967;BME280;51710;38.732;-121.358;2023-03-14T06:36:02;101059.94;;;15.60;86.95
64967;BME280;51710;38.732;-121.358;2023-03-14T06:38:28;101060.78;;;15.61;87.00
64967;BME280;51710;38.732;-121.358;2023-03-14T06:40:55;101061.63;;;15.61;86.97
64967;BME280;51710;38.732;-121.358;2023-03-14T06:43:21;101051.09;;;15.60;87.19
64967;BME280;51710;38.732;-121.358;2023-03-14T06:45:47;101047.28;;;15.54;87.17
64967;BME280;51710;38.732;-121.358;2023-03-14T06:48:13;101048.25;;;15.53;87.26
64967;BME280;51710;38.732;-121.358;2023-03-14T06:50:39;101040.94;;;15.47;87.48
64967;BME280;51710;38.732;-121.358;2023-03-14T06:53:06;101043.16;;;15.44;87.55
64967;BME280;51710;38.732;-121.358;2023-03-14T06:55:32;101052.72;;;15.38;87.65
64967;BME280;51710;38.732;-121.358;2023-03-14T06:57:58;101050.22;;;15.37;87.79
64967;BME280;51710;38.732;-121.358;2023-03-14T07:00:25;101041.53;;;15.35;87.66
64967;BME280;51710;38.732;-121.358;2023-03-14T07:02:54;101041.06;;;15.31;87.88
64967;BME280;51710;38.732;-121.358;2023-03-14T07:05:20;101036.06;;;15.28;87.82
64967;BME280;51710;38.732;-121.358;2023-03-14T07:07:46;101034.72;;;15.24;87.92
64967;BME280;51710;38.732;-121.358;2023-03-14T07:10:13;101035.47;;;15.18;88.07
64967;BME280;51710;38.732;-121.358;2023-03-14T07:12:39;101039.16;;;15.17;88.58
64967;BME280;51710;38.732;-121.358;2023-03-14T07:15:05;101032.13;;;15.16;88.60
64967;BME280;51710;38.732;-121.358;2023-03-14T07:17:32;101032.13;;;15.16;88.65
64967;BME280;51710;38.732;-121.358;2023-03-14T07:19:58;101028.41;;;15.17;88.40
64967;BME280;51710;38.732;-121.358;2023-03-14T07:22:25;101019.69;;;15.15;88.55
64967;BME280;51710;38.732;-121.358;2023-03-14T07:24:51;101019.03;;;15.13;88.38
64967;BME280;51710;38.732;-121.358;2023-03-14T07:27:17;101011.38;;;15.10;88.55
64967;BME280;51710;38.732;-121.358;2023-03-14T07:29:43;101008.03;;;15.08;88.34
64967;BME280;51710;38.732;-121.358;2023-03-14T07:32:10;101002.84;;;15.07;88.64
64967;BME280;51710;38.732;-121.358;2023-03-14T07:34:42;101009.22;;;15.06;88.91
64967;BME280;51710;38.732;-121.358;2023-03-14T07:37:09;101001.38;;;15.04;88.92
64967;BME280;51710;38.732;-121.358;2023-03-14T07:39:35;100996.00;;;15.04;88.66
64967;BME280;51710;38.732;-121.358;2023-03-14T07:42:01;100990.16;;;15.01;88.83
64967;BME280;51710;38.732;-121.358;2023-03-14T07:44:28;100982.63;;;14.96;88.85
64967;BME280;51710;38.732;-121.358;2023-03-14T07:46:54;100972.44;;;14.92;88.92
64967;BME280;51710;38.732;-121.358;2023-03-14T07:49:21;100972.97;;;14.87;89.26
64967;BME280;51710;38.732;-121.358;2023-03-14T07:51:50;100960.97;;;14.83;89.55
64967;BME280;51710;38.732;-121.358;2023-03-14T07:54:16;100953.09;;;14.82;89.65
64967;BME280;51710;38.732;-121.358;2023-03-14T07:56:43;100955.97;;;14.80;89.86
64967;BME280;51710;38.732;-121.358;2023-03-14T07:59:09;100958.16;;;14.77;90.02
64967;BME280;51710;38.732;-121.358;2023-03-14T08:01:36;100970.72;;;14.76;90.10
64967;BME280;51710;38.732;-121.358;2023-03-14T08:04:02;100965.38;;;14.76;89.99
64967;BME280;51710;38.732;-121.358;2023-03-14T08:06:30;100965.38;;;14.76;90.10
64967;BME280;51710;38.732;-121.358;2023-03-14T08:08:56;100966.53;;;14.74;89.70
64967;BME280;51710;38.732;-121.358;2023-03-14T08:11:22;100970.44;;;14.71;89.78
64967;BME280;51710;38.732;-121.358;2023-03-14T08:13:48;100959.88;;;14.70;89.64
64967;BME280;51710;38.732;-121.358;2023-03-14T08:16:17;100954.84;;;14.66;89.62
64967;BME280;51710;38.732;-121.358;2023-03-14T08:18:44;100956.72;;;14.66;89.17
64967;BME280;51710;38.732;-121.358;2023-03-14T08:21:10;100939.31;;;14.62;89.43
64967;BME280;51710;38.732;-121.358;2023-03-14T08:23:37;100932.47;;;14.59;89.67
64967;BME280;51710;38.732;-121.358;2023-03-14T08:26:03;100932.63;;;14.58;89.57
64967;BME280;51710;38.732;-121.358;2023-03-14T08:28:30;100928.63;;;14.54;89.25
64967;BME280;51710;38.732;-121.358;2023-03-14T08:30:59;100931.50;;;14.52;89.37
64967;BME280;51710;38.732;-121.358;2023-03-14T08:33:27;100930.22;;;14.48;89.51
64967;BME280;51710;38.732;-121.358;2023-03-14T08:35:59;100921.69;;;14.45;89.06
64967;BME280;51710;38.732;-121.358;2023-03-14T08:38:26;100917.31;;;14.44;89.45
64967;BME280;51710;38.732;-121.358;2023-03-14T08:40:58;100908.63;;;14.42;89.18
64967;BME280;51710;38.732;-121.358;2023-03-14T08:43:24;100906.97;;;14.41;89.23
64967;BME280;51710;38.732;-121.358;2023-03-14T08:45:50;100908.97;;;14.39;89.35
64967;BME280;51710;38.732;-121.358;2023-03-14T08:48:17;100905.63;;;14.37;89.10
64967;BME280;51710;38.732;-121.358;2023-03-14T08:50:45;100917.38;;;14.36;89.57
64967;BME280;51710;38.732;-121.358;2023-03-14T08:53:12;100910.34;;;14.35;89.52
64967;BME280;51710;38.732;-121.358;2023-03-14T08:55:38;100908.69;;;14.34;89.59
64967;BME280;51710;38.732;-121.358;2023-03-14T08:58:04;100898.16;;;14.32;89.43
64967;BME280;51710;38.732;-121.358;2023-03-14T09:00:30;100890.47;;;14.29;89.48
64967;BME280;51710;38.732;-121.358;2023-03-14T09:02:57;100890.63;;;14.28;89.64
64967;BME280;51710;38.732;-121.358;2023-03-14T09:05:23;100879.28;;;14.26;89.50
64967;BME280;51710;38.732;-121.358;2023-03-14T09:07:49;100876.59;;;14.26;89.78
64967;BME280;51710;38.732;-121.358;2023-03-14T09:10:16;100875.56;;;14.27;90.01
64967;BME280;51710;38.732;-121.358;2023-03-14T09:12:42;100873.22;;;14.24;89.74
64967;BME280;51710;38.732;-121.358;2023-03-14T09:15:09;100868.22;;;14.21;90.06
64967;BME280;51710;38.732;-121.358;2023-03-14T09:17:35;100862.03;;;14.20;89.88
64967;BME280;51710;38.732;-121.358;2023-03-14T09:20:03;100852.50;;;14.18;90.12
64967;BME280;51710;38.732;-121.358;2023-03-14T09:22:32;100853.69;;;14.15;90.32
64967;BME280;51710;38.732;-121.358;2023-03-14T09:25:01;100852.84;;;14.15;90.26
64967;BME280;51710;38.732;-121.358;2023-03-14T09:27:27;100835.94;;;14.14;90.31
64967;BME280;51710;38.732;-121.358;2023-03-14T09:29:54;100837.94;;;14.12;90.55
64967;BME280;51710;38.732;-121.358;2023-03-14T09:32:20;100837.16;;;14.12;90.65
64967;BME280;51710;38.732;-121.358;2023-03-14T09:34:46;100832.13;;;14.09;90.66
64967;BME280;51710;38.732;-121.358;2023-03-14T09:37:12;100824.94;;;14.09;91.07
64967;BME280;51710;38.732;-121.358;2023-03-14T09:39:39;100825.94;;;14.08;91.27
64967;BME280;51710;38.732;-121.358;2023-03-14T09:42:10;100811.06;;;14.06;91.06
64967;BME280;51710;38.732;-121.358;2023-03-14T09:45:00;100808.38;;;14.06;91.49
64967;BME280;51710;38.732;-121.358;2023-03-14T09:47:28;100797.00;;;14.04;91.66
64967;BME280;51710;38.732;-121.358;2023-03-14T09:49:55;100793.03;;;14.00;91.75
64967;BME280;51710;38.732;-121.358;2023-03-14T09:52:29;100784.34;;;13.98;92.01
64967;BME280;51710;38.732;-121.358;2023-03-14T09:55:03;100779.66;;;14.00;92.10
64967;BME280;51710;38.732;-121.358;2023-03-14T09:57:33;100768.09;;;13.99;92.38
64967;BME280;51710;38.732;-121.358;2023-03-14T10:00:05;100768.09;;;13.99;92.54
64967;BME280;51710;38.732;-121.358;2023-03-14T10:02:41;100764.22;;;14.02;92.71
64967;BME280;51710;38.732;-121.358;2023-03-14T10:05:18;100760.53;;;14.03;92.78
64967;BME280;51710;38.732;-121.358;2023-03-14T10:07:45;100753.81;;;14.07;92.99
64967;BME280;51710;38.732;-121.358;2023-03-14T10:10:20;100748.47;;;14.07;92.98
64967;BME280;51710;38.732;-121.358;2023-03-14T10:12:58;100736.72;;;14.08;93.08
64967;BME280;51710;38.732;-121.358;2023-03-14T10:15:29;100737.41;;;14.10;93.14
64967;BME280;51710;38.732;-121.358;2023-03-14T10:17:59;100739.72;;;14.13;93.23
64967;BME280;51710;38.732;-121.358;2023-03-14T10:20:37;100727.16;;;14.13;93.40
64967;BME280;51710;38.732;-121.358;2023-03-14T10:23:18;100719.78;;;14.15;93.44
64967;BME280;51710;38.732;-121.358;2023-03-14T10:26:16;100704.38;;;14.17;93.59
64967;BME280;51710;38.732;-121.358;2023-03-14T10:28:48;100697.97;;;14.18;93.56
64967;BME280;51710;38.732;-121.358;2023-03-14T10:31:17;100698.81;;;14.19;93.49
64967;BME280;51710;38.732;-121.358;2023-03-14T10:34:04;100699.81;;;14.18;93.67
64967;BME280;51710;38.732;-121.358;2023-03-14T10:36:33;100698.81;;;14.19;93.92
64967;BME280;51710;38.732;-121.358;2023-03-14T10:39:26;100690.59;;;14.20;93.86
64967;BME280;51710;38.732;-121.358;2023-03-14T10:41:55;100692.06;;;14.23;93.93
64967;BME280;51710;38.732;-121.358;2023-03-14T10:44:28;100676.66;;;14.25;94.12
64967;BME280;51710;38.732;-121.358;2023-03-14T10:47:02;100675.81;;;14.24;94.05
64967;BME280;51710;38.732;-121.358;2023-03-14T10:49:32;100672.31;;;14.24;94.20
64967;BME280;51710;38.732;-121.358;2023-03-14T10:52:29;100673.31;;;14.23;94.52
64967;BME280;51710;38.732;-121.358;2023-03-14T10:54:59;100654.38;;;14.24;94.20
64967;BME280;51710;38.732;-121.358;2023-03-14T10:57:26;100652.53;;;14.25;94.41
64967;BME280;51710;38.732;-121.358;2023-03-14T10:59:54;100651.59;;;14.26;94.48
64967;BME280;51710;38.732;-121.358;2023-03-14T11:07:40;100643.34;;;14.27;94.91
64967;BME280;51710;38.732;-121.358;2023-03-14T11:13:21;100625.59;;;14.26;94.67
64967;BME280;51710;38.732;-121.358;2023-03-14T11:16:22;100626.59;;;14.25;95.28
64967;BME280;51710;38.732;-121.358;2023-03-14T11:19:26;100609.03;;;14.23;95.02
64967;BME280;51710;38.732;-121.358;2023-03-14T11:28:08;100603.38;;;14.26;95.45
64967;BME280;51710;38.732;-121.358;2023-03-14T11:30:51;100595.13;;;14.27;95.47
64967;BME280;51710;38.732;-121.358;2023-03-14T11:36:33;100588.94;;;14.27;95.60
64967;BME280;51710;38.732;-121.358;2023-03-14T11:39:02;100577.38;;;14.26;96.08
64967;BME280;51710;38.732;-121.358;2023-03-14T11:41:39;100581.94;;;14.26;95.83
64967;BME280;51710;38.732;-121.358;2023-03-14T11:44:18;100577.53;;;14.25;95.94
64967;BME280;51710;38.732;-121.358;2023-03-14T11:51:56;100565.88;;;14.26;96.18
64967;BME280;51710;38.732;-121.358;2023-03-14T11:54:42;100556.13;;;14.25;96.22
64967;BME280;51710;38.732;-121.358;2023-03-14T11:57:18;100556.31;;;14.23;96.06
64967;BME280;51710;38.732;-121.358;2023-03-14T12:10:53;100536.25;;;14.19;96.28
64967;BME280;51710;38.732;-121.358;2023-03-14T12:13:21;100531.09;;;14.18;96.08
64967;BME280;51710;38.732;-121.358;2023-03-14T12:15:54;100531.09;;;14.18;96.25
64967;BME280;51710;38.732;-121.358;2023-03-14T12:18:27;100522.41;;;14.16;96.50
64967;BME280;51710;38.732;-121.358;2023-03-14T12:21:06;100520.75;;;14.15;96.35
64967;BME280;51710;38.732;-121.358;2023-03-14T12:23:43;100522.41;;;14.16;96.41
64967;BME280;51710;38.732;-121.358;2023-03-14T12:26:25;100514.75;;;14.13;96.42
64967;BME280;51710;38.732;-121.358;2023-03-14T12:29:16;100518.63;;;14.10;96.87
64967;BME280;51710;38.732;-121.358;2023-03-14T12:31:45;100515.78;;;14.12;97.01
64967;BME280;51710;38.732;-121.358;2023-03-14T12:39:19;100507.94;;;14.10;97.12
64967;BME280;51710;38.732;-121.358;2023-03-14T12:47:14;100487.69;;;14.08;97.63
64967;BME280;51710;38.732;-121.358;2023-03-14T12:49:49;100489.34;;;14.09;97.62
64967;BME280;51710;38.732;-121.358;2023-03-14T13:00:35;100489.06;;;14.04;97.80
64967;BME280;51710;38.732;-121.358;2023-03-14T13:03:20;100483.06;;;14.02;97.73
64967;BME280;51710;38.732;-121.358;2023-03-14T13:05:57;100470.72;;;14.01;98.13
64967;BME280;51710;38.732;-121.358;2023-03-14T13:08:43;100465.34;;;14.01;98.04
64967;BME280;51710;38.732;-121.358;2023-03-14T13:11:19;100441.44;;;13.99;98.25
64967;BME280;51710;38.732;-121.358;2023-03-14T13:13:56;100447.81;;;13.98;98.70
64967;BME280;51710;38.732;-121.358;2023-03-14T13:16:25;100443.28;;;13.99;98.48
64967;BME280;51710;38.732;-121.358;2023-03-14T13:19:25;100431.94;;;13.97;98.95
64967;BME280;51710;38.732;-121.358;2023-03-14T13:22:00;100420.22;;;13.98;99.23
64967;BME280;51710;38.732;-121.358;2023-03-14T13:24:28;100409.50;;;13.98;99.21
64967;BME280;51710;38.732;-121.358;2023-03-14T13:26:56;100405.59;;;14.00;99.48
64967;BME280;51710;38.732;-121.358;2023-03-14T13:29:25;100401.09;;;14.01;99.33
64967;BME280;51710;38.732;-121.358;2023-03-14T13:31:58;100390.19;;;14.02;99.34
64967;BME280;51710;38.732;-121.358;2023-03-14T13:34:28;100382.16;;;14.02;99.25
64967;BME280;51710;38.732;-121.358;2023-03-14T13:36:55;100370.63;;;14.02;99.41